Terminal Aerodrome Forecast
Issued by NWS

Home | Current Version | Previous Version | Graphics & Text | Print | Product List | Glossary On
Versions: 1 2 3 4 5 6 7 8 9 10 11 12 13 14 15 16 17 18 19 20 21 22 23 24 25 26
309
FTUS43 KLOT 211528 AAA
TAFORD
TAF AMD
KORD 211528Z 2115/2218 27012G22KT P6SM -RA BKN060 OVC090
      TEMPO 2115/2117 -RA BKN040
     FM211700 30015G25KT P6SM OVC050
     FM220000 32012KT P6SM SCT040
     FM220300 32008KT P6SM SKC=

USA.gov is the U.S. government's official web portal to all federal, state and local government web resources and services.